Time;durP1;ratioP1;P1;durP2;ratioP2;P2;SDS_P1;SDS_P2;PMS_P1;PMS_P2;Temp;Humidity;BMP_temperature;BMP_pressure;BME280_temperature;BME280_humidity;BME280_pressure;Samples;Min_cycle;Max_cycle;Signal;HPM_P1;HPM_P2
2023/07/12 00:00:52;;;;;;;;;;;25.60;75.40;;;;;;2095618;28;19916;-72
2023/07/12 00:01:52;;;;;;;;;;;25.60;75.40;;;;;;2095417;28;19924;-72
2023/07/12 00:02:54;;;;;;;;;;;25.60;75.30;;;;;;2098020;28;19993;-73
2023/07/12 00:03:54;;;;;;;;;;;25.60;75.30;;;;;;2091218;28;19916;-72
2023/07/12 00:04:55;;;;;;;;;;;25.60;75.30;;;;;;2092211;28;19955;-75
2023/07/12 00:05:55;;;;;;;;;;;25.50;75.30;;;;;;2096653;28;20291;-75
2023/07/12 00:06:56;;;;;;;;;;;25.50;75.20;;;;;;2097824;28;19965;-74
2023/07/12 00:07:57;;;;;;;;;;;25.50;75.20;;;;;;2095505;28;20366;-72
2023/07/12 00:08:57;;;;;;;;;;;25.60;75.20;;;;;;2088009;28;19951;-74
2023/07/12 00:09:58;;;;;;;;;;;25.60;75.30;;;;;;2093712;28;19916;-75
2023/07/12 00:10:58;;;;;;;;;;;25.60;75.30;;;;;;2095769;28;19919;-72
2023/07/12 00:11:59;;;;;;;;;;;25.60;75.40;;;;;;2096018;28;19919;-73
2023/07/12 00:12:59;;;;;;;;;;;25.60;75.10;;;;;;2095925;28;19912;-72
2023/07/12 00:14:00;;;;;;;;;;;25.60;75.30;;;;;;2097301;28;19916;-72
2023/07/12 00:15:00;;;;;;;;;;;25.60;75.20;;;;;;2087806;28;19956;-72
2023/07/12 00:16:00;;;;;;;;;;;25.60;75.20;;;;;;2091712;28;20891;-72
2023/07/12 00:17:01;;;;;;;;;;;25.60;75.20;;;;;;2096647;28;19964;-72
2023/07/12 00:18:01;;;;;;;;;;;25.60;75.20;;;;;;2097926;28;20023;-73
2023/07/12 00:19:02;;;;;;;;;;;25.60;75.10;;;;;;2089630;28;20330;-74
2023/07/12 00:20:03;;;;;;;;;;;25.60;75.30;;;;;;2089006;28;20372;-73
2023/07/12 00:21:04;;;;;;;;;;;25.60;75.30;;;;;;2091443;28;19940;-75
2023/07/12 00:22:04;;;;;;;;;;;25.60;75.20;;;;;;2093206;28;19999;-74
2023/07/12 00:23:05;;;;;;;;;;;25.60;75.20;;;;;;2096923;28;19916;-74
2023/07/12 00:24:05;;;;;;;;;;;25.60;75.30;;;;;;2096742;28;20631;-74
2023/07/12 00:25:06;;;;;;;;;;;25.60;75.30;;;;;;2096836;28;20409;-73
2023/07/12 00:26:39;;;;;;;;;;;25.60;75.30;;;;;;2097665;28;19970;-73
2023/07/12 00:27:39;;;;;;;;;;;25.60;75.30;;;;;;2070734;28;20008;-74
2023/07/12 00:28:40;;;;;;;;;;;25.60;75.40;;;;;;2084629;28;19917;-73
2023/07/12 00:29:40;;;;;;;;;;;25.50;75.50;;;;;;2098028;28;19916;-73
2023/07/12 00:30:41;;;;;;;;;;;25.50;75.50;;;;;;2098260;28;19923;-74
2023/07/12 00:31:41;;;;;;;;;;;25.50;75.50;;;;;;2098492;28;20277;-73
2023/07/12 00:32:42;;;;;;;;;;;25.50;75.50;;;;;;2096359;28;19923;-76
2023/07/12 00:33:42;;;;;;;;;;;25.50;75.50;;;;;;2096074;28;20485;-72
2023/07/12 00:34:43;;;;;;;;;;;25.50;75.50;;;;;;2098363;28;19966;-74
2023/07/12 00:35:43;;;;;;;;;;;25.50;75.70;;;;;;2097634;28;20293;-74
2023/07/12 00:36:46;;;;;;;;;;;25.50;75.60;;;;;;2098285;28;20384;-72
2023/07/12 00:37:47;;;;;;;;;;;25.50;75.70;;;;;;2097115;28;19923;-74
2023/07/12 00:38:48;;;;;;;;;;;25.50;75.80;;;;;;2088717;28;19916;-74
2023/07/12 00:39:48;;;;;;;;;;;25.50;76.00;;;;;;2096950;28;19916;-74
2023/07/12 00:40:55;;;;;;;;;;;25.50;76.00;;;;;;2095486;28;19912;-74
2023/07/12 00:42:03;;;;;;;;;;;25.40;76.10;;;;;;2098038;28;19915;-73
2023/07/12 00:43:24;;;;;;;;;;;25.40;76.10;;;;;;2095798;28;19916;-72
2023/07/12 00:44:32;;;;;;;;;;;25.40;76.10;;;;;;2095065;28;19923;-73
2023/07/12 00:45:33;;;;;;;;;;;25.50;76.10;;;;;;2100128;28;19916;-74
2023/07/12 00:46:37;;;;;;;;;;;25.50;76.10;;;;;;2093277;28;19923;-74
2023/07/12 00:47:39;;;;;;;;;;;25.50;76.10;;;;;;2082882;28;20255;-74
2023/07/12 00:48:39;;;;;;;;;;;25.50;76.20;;;;;;2096266;28;19922;-74
2023/07/12 00:49:40;;;;;;;;;;;25.50;76.20;;;;;;2087933;28;20007;-74
2023/07/12 00:50:40;;;;;;;;;;;25.50;76.20;;;;;;2088240;28;19917;-73
2023/07/12 00:52:00;;;;;;;;;;;25.50;76.20;;;;;;2097384;28;19959;-73
2023/07/12 00:53:00;;;;;;;;;;;25.50;76.10;;;;;;2097264;28;19920;-74
2023/07/12 00:54:08;;;;;;;;;;;25.50;76.10;;;;;;2096783;28;20554;-73
2023/07/12 00:55:27;;;;;;;;;;;25.50;76.30;;;;;;2096025;28;19963;-74
2023/07/12 00:56:28;;;;;;;;;;;25.50;76.30;;;;;;2095980;28;19920;-73
2023/07/12 00:57:29;;;;;;;;;;;25.50;76.30;;;;;;2095959;28;19963;-74
2023/07/12 00:58:35;;;;;;;;;;;25.50;76.40;;;;;;2096247;28;19995;-72
2023/07/12 00:59:36;;;;;;;;;;;25.50;76.40;;;;;;2091079;28;19917;-74
2023/07/12 01:00:37;;;;;;;;;;;25.50;76.40;;;;;;2096549;28;19916;-74
2023/07/12 01:01:38;;;;;;;;;;;25.50;76.70;;;;;;2090448;28;20390;-73
2023/07/12 01:02:40;;;;;;;;;;;25.50;76.50;;;;;;2092771;28;20082;-73
2023/07/12 01:03:42;;;;;;;;;;;25.50;76.50;;;;;;2096863;28;19923;-73
2023/07/12 01:04:48;;;;;;;;;;;25.50;76.50;;;;;;2084445;28;20294;-73
2023/07/12 01:05:48;;;;;;;;;;;25.50;76.50;;;;;;2094562;28;19915;-72
2023/07/12 01:06:52;;;;;;;;;;;25.50;76.60;;;;;;2099255;28;19950;-73
2023/07/12 01:07:53;;;;;;;;;;;25.50;76.70;;;;;;2095616;28;19922;-73
2023/07/12 01:08:54;;;;;;;;;;;25.50;76.60;;;;;;2090712;28;19912;-73
2023/07/12 01:09:57;;;;;;;;;;;25.50;76.70;;;;;;2096543;28;19913;-72
2023/07/12 01:11:00;;;;;;;;;;;25.50;76.70;;;;;;2098387;28;20346;-73
2023/07/12 01:12:02;;;;;;;;;;;25.50;76.80;;;;;;2082687;28;19994;-72
2023/07/12 01:13:04;;;;;;;;;;;25.50;76.80;;;;;;2082174;28;20351;-73
2023/07/12 01:14:09;;;;;;;;;;;25.50;76.90;;;;;;2083858;28;20024;-72
2023/07/12 01:15:10;;;;;;;;;;;25.50;77.00;;;;;;2093399;28;20357;-72
2023/07/12 01:16:12;;;;;;;;;;;25.50;76.90;;;;;;2092714;28;19920;-73
2023/07/12 01:17:13;;;;;;;;;;;25.50;77.10;;;;;;2093032;28;20383;-74
2023/07/12 01:18:14;;;;;;;;;;;25.50;77.00;;;;;;2092282;28;20444;-74
2023/07/12 01:19:15;;;;;;;;;;;25.50;77.20;;;;;;2097412;28;19912;-71
2023/07/12 01:20:15;;;;;;;;;;;25.50;77.40;;;;;;2095911;28;19921;-72
2023/07/12 01:21:21;;;;;;;;;;;25.50;77.30;;;;;;2095120;28;20147;-72
2023/07/12 01:22:21;;;;;;;;;;;25.50;77.40;;;;;;2087994;28;19928;-72
2023/07/12 01:23:22;;;;;;;;;;;25.50;77.30;;;;;;2095859;28;19995;-72
2023/07/12 01:24:23;;;;;;;;;;;25.50;77.40;;;;;;2099029;28;19916;-72
2023/07/12 01:25:31;;;;;;;;;;;25.50;77.50;;;;;;2097368;28;20379;-73
2023/07/12 01:26:36;;;;;;;;;;;25.50;77.20;;;;;;2090625;28;19978;-73
2023/07/12 01:27:37;;;;;;;;;;;25.50;77.40;;;;;;2097359;28;20670;-73
2023/07/12 01:28:41;;;;;;;;;;;25.50;77.40;;;;;;2097468;28;20416;-75
2023/07/12 01:29:42;;;;;;;;;;;25.50;77.50;;;;;;2098004;28;19962;-75
2023/07/12 01:30:44;;;;;;;;;;;25.50;77.50;;;;;;2099693;28;19999;-74
2023/07/12 01:31:45;;;;;;;;;;;25.50;77.80;;;;;;2096692;28;20302;-72
2023/07/12 01:32:46;;;;;;;;;;;25.50;77.60;;;;;;2096275;28;20362;-73
2023/07/12 01:33:46;;;;;;;;;;;25.50;78.10;;;;;;2095657;28;19962;-73
2023/07/12 01:34:47;;;;;;;;;;;25.50;78.80;;;;;;2096768;28;20382;-69
2023/07/12 01:35:47;;;;;;;;;;;25.50;79.10;;;;;;2089539;28;19916;-73
2023/07/12 01:36:48;;;;;;;;;;;25.40;79.50;;;;;;2092857;28;20311;-74
2023/07/12 01:37:49;;;;;;;;;;;25.40;78.90;;;;;;2096920;28;19912;-74
2023/07/12 01:38:50;;;;;;;;;;;25.40;78.90;;;;;;2096589;28;20177;-73
2023/07/12 01:39:51;;;;;;;;;;;25.40;79.90;;;;;;2094447;28;19913;-73
2023/07/12 01:40:51;;;;;;;;;;;25.40;80.00;;;;;;2093371;28;19921;-72
2023/07/12 01:41:53;;;;;;;;;;;25.40;79.20;;;;;;2090366;28;20383;-73
2023/07/12 01:42:53;;;;;;;;;;;25.40;79.10;;;;;;2096324;28;19963;-74
2023/07/12 01:43:54;;;;;;;;;;;25.30;79.00;;;;;;2096420;28;19939;-74
2023/07/12 01:44:55;;;;;;;;;;;25.30;79.00;;;;;;2095445;28;19917;-73
2023/07/12 01:45:56;;;;;;;;;;;25.30;78.90;;;;;;2098543;28;19920;-74
2023/07/12 01:46:57;;;;;;;;;;;25.30;79.00;;;;;;2098656;28;19928;-72
2023/07/12 01:47:58;;;;;;;;;;;25.30;78.90;;;;;;2092792;28;19912;-73
2023/07/12 01:48:59;;;;;;;;;;;25.30;79.00;;;;;;2088765;28;19967;-73
2023/07/12 01:49:59;;;;;;;;;;;25.30;79.00;;;;;;2085644;28;19987;-74
2023/07/12 01:51:00;;;;;;;;;;;25.30;79.10;;;;;;2095244;28;20390;-73
2023/07/12 01:52:00;;;;;;;;;;;25.30;79.20;;;;;;2096217;28;20065;-74
2023/07/12 01:53:01;;;;;;;;;;;25.30;79.30;;;;;;2096127;28;19928;-73
2023/07/12 01:54:01;;;;;;;;;;;25.20;79.20;;;;;;2098203;28;19939;-72
2023/07/12 01:55:02;;;;;;;;;;;25.20;79.10;;;;;;2097028;28;20019;-73
2023/07/12 01:56:03;;;;;;;;;;;25.20;79.10;;;;;;2097914;28;19912;-74
2023/07/12 01:57:05;;;;;;;;;;;25.20;79.30;;;;;;2096882;28;19970;-74
2023/07/12 01:58:06;;;;;;;;;;;25.20;79.30;;;;;;2098077;28;19912;-75
2023/07/12 01:59:07;;;;;;;;;;;25.20;79.40;;;;;;2095532;28;20462;-73
2023/07/12 02:00:08;;;;;;;;;;;25.20;79.50;;;;;;2087482;28;19916;-73
2023/07/12 02:01:16;;;;;;;;;;;25.20;79.60;;;;;;2096103;28;20425;-73
2023/07/12 02:02:17;;;;;;;;;;;25.20;79.70;;;;;;2096632;28;19971;-74
2023/07/12 02:03:18;;;;;;;;;;;25.20;79.80;;;;;;2096295;28;20354;-74
2023/07/12 02:04:18;;;;;;;;;;;25.20;79.70;;;;;;2095618;28;20452;-74
2023/07/12 02:05:21;;;;;;;;;;;25.20;79.80;;;;;;2090727;28;20435;-74
2023/07/12 02:06:22;;;;;;;;;;;25.20;79.90;;;;;;2085758;28;19917;-74
2023/07/12 02:07:24;;;;;;;;;;;25.20;80.20;;;;;;2083571;28;20438;-74
2023/07/12 02:08:25;;;;;;;;;;;25.20;80.40;;;;;;2089891;28;19943;-74
2023/07/12 02:09:32;;;;;;;;;;;25.20;80.40;;;;;;2101723;28;20317;-74
2023/07/12 02:10:32;;;;;;;;;;;25.30;80.40;;;;;;2094900;28;19941;-73
2023/07/12 02:11:33;;;;;;;;;;;25.30;80.50;;;;;;2080443;28;19917;-73
2023/07/12 02:12:33;;;;;;;;;;;25.30;80.40;;;;;;2087816;28;20461;-72
2023/07/12 02:13:36;;;;;;;;;;;25.30;80.30;;;;;;2095341;28;20011;-74
2023/07/12 02:14:37;;;;;;;;;;;25.40;80.20;;;;;;2095263;28;20373;-71
2023/07/12 02:15:37;;;;;;;;;;;25.40;80.20;;;;;;2099270;28;20011;-72
2023/07/12 02:16:39;;;;;;;;;;;25.40;80.00;;;;;;2092867;28;19923;-73
2023/07/12 02:17:40;;;;;;;;;;;25.60;79.70;;;;;;2093771;28;20340;-72
2023/07/12 02:18:40;;;;;;;;;;;25.70;78.70;;;;;;2097346;28;19912;-76
2023/07/12 02:19:44;;;;;;;;;;;25.80;78.40;;;;;;2098633;28;20366;-73
2023/07/12 02:20:44;;;;;;;;;;;26.00;77.20;;;;;;2092148;28;19923;-74
2023/07/12 02:21:45;;;;;;;;;;;26.10;76.80;;;;;;2086990;28;19964;-74
2023/07/12 02:22:46;;;;;;;;;;;26.20;76.90;;;;;;2095377;28;19923;-74
2023/07/12 02:23:52;;;;;;;;;;;26.20;77.30;;;;;;2098652;28;20266;-74
2023/07/12 02:24:52;;;;;;;;;;;26.20;77.20;;;;;;2097789;28;19923;-75
2023/07/12 02:25:53;;;;;;;;;;;26.20;77.00;;;;;;2089539;28;19955;-76
2023/07/12 02:26:53;;;;;;;;;;;26.20;76.80;;;;;;2092145;28;20486;-73
2023/07/12 02:27:54;;;;;;;;;;;26.30;76.80;;;;;;2097211;28;19916;-75
2023/07/12 02:28:54;;;;;;;;;;;26.30;76.90;;;;;;2087867;28;20303;-74
2023/07/12 02:29:55;;;;;;;;;;;26.30;76.70;;;;;;2097985;28;19916;-74
2023/07/12 02:31:12;;;;;;;;;;;26.30;76.80;;;;;;2095792;28;19912;-74
2023/07/12 02:32:13;;;;;;;;;;;26.30;77.30;;;;;;2093644;28;19989;-75
2023/07/12 02:33:13;;;;;;;;;;;26.30;77.30;;;;;;2098571;28;19981;-74
2023/07/12 02:34:14;;;;;;;;;;;26.30;77.20;;;;;;2095269;28;19938;-73
2023/07/12 02:35:15;;;;;;;;;;;26.30;77.30;;;;;;2093871;28;19920;-74
2023/07/12 02:36:16;;;;;;;;;;;26.30;77.50;;;;;;2096006;28;20360;-73
2023/07/12 02:37:17;;;;;;;;;;;26.20;77.50;;;;;;2098871;28;19916;-75
2023/07/12 02:38:17;;;;;;;;;;;26.20;77.60;;;;;;2097333;28;19926;-73
2023/07/12 02:39:18;;;;;;;;;;;26.20;77.80;;;;;;2096804;28;20401;-74
2023/07/12 02:40:18;;;;;;;;;;;26.10;78.00;;;;;;2097090;28;19919;-73
2023/07/12 02:41:19;;;;;;;;;;;26.10;78.70;;;;;;2099136;28;20008;-73
2023/07/12 02:42:19;;;;;;;;;;;26.00;78.90;;;;;;2087775;28;20288;-74
2023/07/12 02:43:20;;;;;;;;;;;26.00;79.40;;;;;;2087367;28;20338;-75
2023/07/12 02:44:21;;;;;;;;;;;26.00;79.90;;;;;;2095631;28;19916;-75
2023/07/12 02:45:22;;;;;;;;;;;26.00;80.00;;;;;;2098521;28;19919;-75
2023/07/12 02:46:22;;;;;;;;;;;26.00;80.10;;;;;;2097494;28;19917;-74
2023/07/12 02:47:23;;;;;;;;;;;26.00;80.30;;;;;;2093612;28;19923;-75
2023/07/12 02:48:23;;;;;;;;;;;25.90;80.60;;;;;;2096723;28;19977;-74
2023/07/12 02:49:24;;;;;;;;;;;25.90;80.60;;;;;;2097079;28;20390;-74
2023/07/12 02:50:24;;;;;;;;;;;25.90;80.60;;;;;;2098351;28;19923;-75
2023/07/12 02:51:25;;;;;;;;;;;25.90;80.80;;;;;;2093930;28;20128;-75
2023/07/12 02:52:25;;;;;;;;;;;25.80;81.00;;;;;;2095883;28;20262;-75
2023/07/12 02:53:28;;;;;;;;;;;25.80;81.20;;;;;;2095728;28;20058;-75
2023/07/12 02:54:28;;;;;;;;;;;25.80;81.50;;;;;;2094924;28;20011;-75
2023/07/12 02:55:29;;;;;;;;;;;25.80;81.70;;;;;;2090200;28;19923;-75
2023/07/12 02:56:29;;;;;;;;;;;25.70;81.60;;;;;;2092728;28;20279;-74
2023/07/12 02:57:30;;;;;;;;;;;25.70;81.70;;;;;;2094086;28;19920;-75
2023/07/12 02:58:30;;;;;;;;;;;25.70;81.70;;;;;;2096132;28;19909;-74
2023/07/12 02:59:31;;;;;;;;;;;25.60;81.70;;;;;;2097772;28;20452;-74
2023/07/12 03:00:31;;;;;;;;;;;25.60;81.70;;;;;;2095343;28;20030;-73
2023/07/12 03:01:32;;;;;;;;;;;25.60;81.60;;;;;;2095446;28;19955;-74
2023/07/12 03:02:32;;;;;;;;;;;25.60;81.50;;;;;;2095762;28;20444;-74
2023/07/12 03:03:33;;;;;;;;;;;25.50;81.60;;;;;;2095763;28;19959;-74
2023/07/12 03:04:34;;;;;;;;;;;25.60;81.70;;;;;;2098165;28;20317;-75
2023/07/12 03:05:35;;;;;;;;;;;25.50;81.70;;;;;;2097111;28;19916;-74
2023/07/12 03:06:35;;;;;;;;;;;25.50;81.40;;;;;;2093094;28;19923;-75
2023/07/12 03:07:38;;;;;;;;;;;25.50;81.40;;;;;;2094057;28;20286;-74
2023/07/12 03:08:39;;;;;;;;;;;25.50;81.00;;;;;;2096271;28;19923;-74
2023/07/12 03:09:39;;;;;;;;;;;25.50;80.90;;;;;;2095985;28;19955;-74
2023/07/12 03:10:40;;;;;;;;;;;25.50;80.80;;;;;;2096077;28;20027;-75
2023/07/12 03:11:40;;;;;;;;;;;25.50;81.00;;;;;;2096210;28;20256;-73
2023/07/12 03:12:41;;;;;;;;;;;25.50;81.00;;;;;;2096412;28;19959;-74
2023/07/12 03:13:41;;;;;;;;;;;25.50;81.00;;;;;;2095109;28;19931;-75
2023/07/12 03:14:42;;;;;;;;;;;25.40;81.20;;;;;;2094138;28;19927;-75
2023/07/12 03:15:42;;;;;;;;;;;25.40;81.30;;;;;;2097108;28;20363;-75
2023/07/12 03:16:43;;;;;;;;;;;25.40;81.40;;;;;;2091069;28;19972;-74
2023/07/12 03:17:43;;;;;;;;;;;25.40;81.50;;;;;;2084836;28;20035;-74
2023/07/12 03:18:44;;;;;;;;;;;25.40;81.60;;;;;;2092907;28;19920;-74
2023/07/12 03:19:44;;;;;;;;;;;25.40;81.90;;;;;;2094810;28;19912;-75
2023/07/12 03:20:45;;;;;;;;;;;25.40;82.20;;;;;;2093985;28;20007;-75
2023/07/12 03:21:46;;;;;;;;;;;25.40;82.10;;;;;;2097570;28;19921;-74
2023/07/12 03:22:46;;;;;;;;;;;25.40;82.90;;;;;;2089375;28;20007;-74
2023/07/12 03:23:47;;;;;;;;;;;25.30;82.20;;;;;;2096745;28;20405;-75
2023/07/12 03:24:48;;;;;;;;;;;25.30;82.00;;;;;;2096790;28;19958;-76
2023/07/12 03:25:48;;;;;;;;;;;25.30;82.20;;;;;;2098461;28;19959;-74
2023/07/12 03:26:48;;;;;;;;;;;25.30;82.20;;;;;;2096232;28;20664;-75
2023/07/12 03:27:50;;;;;;;;;;;25.30;82.10;;;;;;2095858;28;19923;-75
2023/07/12 03:28:51;;;;;;;;;;;25.30;81.70;;;;;;2095439;28;20365;-75
2023/07/12 03:29:51;;;;;;;;;;;25.30;81.70;;;;;;2095429;28;20333;-74
2023/07/12 03:31:05;;;;;;;;;;;25.40;81.60;;;;;;2098178;28;19917;-75
2023/07/12 03:32:06;;;;;;;;;;;25.30;81.30;;;;;;2092033;28;19920;-75
2023/07/12 03:33:07;;;;;;;;;;;25.40;82.70;;;;;;2098028;28;19916;-74
2023/07/12 03:34:07;;;;;;;;;;;25.40;81.90;;;;;;2092741;28;20028;-76
2023/07/12 03:35:08;;;;;;;;;;;25.40;81.70;;;;;;2096136;28;20004;-75
2023/07/12 03:36:08;;;;;;;;;;;25.40;81.50;;;;;;2097051;28;20382;-74
2023/07/12 03:37:09;;;;;;;;;;;25.40;81.10;;;;;;2097650;28;19927;-76
2023/07/12 03:38:09;;;;;;;;;;;25.40;81.00;;;;;;2095228;28;20011;-75
2023/07/12 03:39:10;;;;;;;;;;;25.40;81.10;;;;;;2095190;28;19912;-74
2023/07/12 03:40:11;;;;;;;;;;;25.40;81.50;;;;;;2097763;28;19965;-75
2023/07/12 03:41:14;;;;;;;;;;;25.40;81.60;;;;;;2096169;28;20438;-75
2023/07/12 03:42:15;;;;;;;;;;;25.40;81.50;;;;;;2096089;28;19920;-74
2023/07/12 03:43:15;;;;;;;;;;;25.40;81.30;;;;;;2096740;28;19912;-76
2023/07/12 03:44:16;;;;;;;;;;;25.40;81.40;;;;;;2096944;28;19912;-75
2023/07/12 03:45:16;;;;;;;;;;;25.40;81.50;;;;;;2097798;28;20011;-74
2023/07/12 03:46:17;;;;;;;;;;;25.40;81.50;;;;;;2095356;28;19955;-75
2023/07/12 03:47:18;;;;;;;;;;;25.40;81.50;;;;;;2095324;28;19916;-75
2023/07/12 03:48:19;;;;;;;;;;;25.40;81.30;;;;;;2095548;28;19923;-74
2023/07/12 03:49:19;;;;;;;;;;;25.40;81.50;;;;;;2098764;28;20302;-75
2023/07/12 03:50:20;;;;;;;;;;;25.40;81.90;;;;;;2092455;28;19920;-74
2023/07/12 03:51:22;;;;;;;;;;;25.40;81.90;;;;;;2096505;28;19950;-74
2023/07/12 03:52:23;;;;;;;;;;;25.40;81.90;;;;;;2096457;28;19923;-76
2023/07/12 03:53:24;;;;;;;;;;;25.30;81.40;;;;;;2096572;28;19923;-73
2023/07/12 03:54:24;;;;;;;;;;;25.40;81.40;;;;;;2096017;28;19915;-75
2023/07/12 03:55:25;;;;;;;;;;;25.30;81.40;;;;;;2098131;28;20002;-74
2023/07/12 03:56:25;;;;;;;;;;;25.30;81.70;;;;;;2095364;28;20005;-74
2023/07/12 03:57:26;;;;;;;;;;;25.30;81.70;;;;;;2095314;28;20401;-75
2023/07/12 03:58:32;;;;;;;;;;;25.30;82.20;;;;;;2095218;28;19913;-73
2023/07/12 03:59:32;;;;;;;;;;;25.30;82.90;;;;;;2097381;28;19917;-73
2023/07/12 04:00:33;;;;;;;;;;;25.30;83.20;;;;;;2098835;28;20417;-76
2023/07/12 04:01:35;;;;;;;;;;;25.30;82.80;;;;;;2096633;28;19923;-74
2023/07/12 04:02:35;;;;;;;;;;;25.30;82.80;;;;;;2096318;28;19966;-76
2023/07/12 04:03:37;;;;;;;;;;;25.20;82.70;;;;;;2097190;28;19995;-76
2023/07/12 04:04:37;;;;;;;;;;;25.20;82.70;;;;;;2096240;28;19912;-75
2023/07/12 04:05:39;;;;;;;;;;;25.20;82.80;;;;;;2093378;28;19974;-75
2023/07/12 04:06:39;;;;;;;;;;;25.20;82.90;;;;;;2099812;28;19916;-74
2023/07/12 04:07:39;;;;;;;;;;;25.20;83.10;;;;;;2096949;28;19909;-73
2023/07/12 04:08:40;;;;;;;;;;;25.20;83.00;;;;;;2096794;28;20324;-75
2023/07/12 04:09:41;;;;;;;;;;;25.20;82.60;;;;;;2097687;28;20034;-74
2023/07/12 04:10:41;;;;;;;;;;;25.20;81.90;;;;;;2093985;28;19920;-74
2023/07/12 04:11:42;;;;;;;;;;;25.20;81.70;;;;;;2097851;28;19916;-73
2023/07/12 04:12:42;;;;;;;;;;;25.20;81.70;;;;;;2097248;28;19927;-73
2023/07/12 04:13:43;;;;;;;;;;;25.30;81.70;;;;;;2099595;28;19971;-72
2023/07/12 04:14:44;;;;;;;;;;;25.30;82.10;;;;;;2094197;28;20401;-74
2023/07/12 04:15:44;;;;;;;;;;;25.30;82.30;;;;;;2097290;28;19995;-73
2023/07/12 04:16:47;;;;;;;;;;;25.20;81.80;;;;;;2096335;28;19942;-75
2023/07/12 04:17:47;;;;;;;;;;;25.30;81.60;;;;;;2098663;28;19935;-73
2023/07/12 04:18:48;;;;;;;;;;;25.30;82.00;;;;;;2098598;28;20323;-73
2023/07/12 04:19:48;;;;;;;;;;;25.30;82.00;;;;;;2092391;28;19923;-74
2023/07/12 04:20:49;;;;;;;;;;;25.30;82.20;;;;;;2095820;28;20417;-74
2023/07/12 04:21:49;;;;;;;;;;;25.20;82.50;;;;;;2098160;28;19920;-73
2023/07/12 04:22:51;;;;;;;;;;;25.20;82.70;;;;;;2099823;28;19920;-73
2023/07/12 04:23:52;;;;;;;;;;;25.20;83.00;;;;;;2096779;28;19969;-73
2023/07/12 04:24:52;;;;;;;;;;;25.20;82.70;;;;;;2096790;28;19990;-74
2023/07/12 04:26:03;;;;;;;;;;;25.20;81.70;;;;;;2097109;28;20512;-72
2023/07/12 04:27:04;;;;;;;;;;;25.20;82.00;;;;;;2096508;28;19916;-73
2023/07/12 04:28:04;;;;;;;;;;;25.20;82.30;;;;;;2091119;28;19967;-73
2023/07/12 04:29:05;;;;;;;;;;;25.20;82.20;;;;;;2097263;28;20342;-74
2023/07/12 04:30:07;;;;;;;;;;;25.20;82.30;;;;;;2093093;28;19916;-72
2023/07/12 04:31:10;;;;;;;;;;;25.20;82.60;;;;;;2097522;28;20287;-74
2023/07/12 04:32:10;;;;;;;;;;;25.20;82.40;;;;;;2098493;28;19932;-73
2023/07/12 04:33:10;;;;;;;;;;;25.20;82.70;;;;;;2096885;28;20371;-74
2023/07/12 04:34:11;;;;;;;;;;;25.20;82.60;;;;;;2094602;28;19981;-74
2023/07/12 04:35:11;;;;;;;;;;;25.20;82.60;;;;;;2096202;28;19916;-73
2023/07/12 04:36:12;;;;;;;;;;;25.20;81.80;;;;;;2097461;28;19966;-73
2023/07/12 04:37:13;;;;;;;;;;;25.20;81.70;;;;;;2099841;28;19916;-74
2023/07/12 04:38:14;;;;;;;;;;;25.20;82.40;;;;;;2098409;28;19916;-74
2023/07/12 04:39:14;;;;;;;;;;;25.20;82.40;;;;;;2094250;28;19924;-74
2023/07/12 04:40:15;;;;;;;;;;;25.20;82.50;;;;;;2098220;28;19976;-74
2023/07/12 04:41:16;;;;;;;;;;;25.20;82.50;;;;;;2098129;28;19920;-74
2023/07/12 04:42:17;;;;;;;;;;;25.30;82.90;;;;;;2098486;28;20651;-74
2023/07/12 04:43:17;;;;;;;;;;;25.30;82.80;;;;;;2087732;28;20030;-74
2023/07/12 04:44:17;;;;;;;;;;;25.30;82.70;;;;;;2087297;28;19920;-75
2023/07/12 04:45:18;;;;;;;;;;;25.30;82.60;;;;;;2086565;28;19917;-75
2023/07/12 04:46:18;;;;;;;;;;;25.40;82.80;;;;;;2096914;28;19916;-74
2023/07/12 04:47:19;;;;;;;;;;;25.40;82.70;;;;;;2093499;28;20395;-74
2023/07/12 04:48:20;;;;;;;;;;;25.40;82.60;;;;;;2088618;28;20391;-74
2023/07/12 04:49:20;;;;;;;;;;;25.40;83.00;;;;;;2097956;28;19927;-73
2023/07/12 04:50:21;;;;;;;;;;;25.40;82.90;;;;;;2098708;28;19917;-73
2023/07/12 04:51:21;;;;;;;;;;;25.40;82.70;;;;;;2096580;28;20167;-73
2023/07/12 04:52:21;;;;;;;;;;;25.40;82.90;;;;;;2096569;28;19913;-75
2023/07/12 04:53:22;;;;;;;;;;;25.40;82.90;;;;;;2097573;28;20358;-73
2023/07/12 04:54:23;;;;;;;;;;;25.50;82.90;;;;;;2090870;28;19977;-74
2023/07/12 04:55:25;;;;;;;;;;;25.50;82.90;;;;;;2098008;28;19912;-76
2023/07/12 04:56:26;;;;;;;;;;;25.50;82.90;;;;;;2094160;28;19916;-75
2023/07/12 04:57:26;;;;;;;;;;;25.50;82.90;;;;;;2098009;28;20374;-75
2023/07/12 04:58:27;;;;;;;;;;;25.60;82.90;;;;;;2099331;28;19912;-75
2023/07/12 04:59:27;;;;;;;;;;;25.50;82.70;;;;;;2096559;28;19916;-75
2023/07/12 05:00:28;;;;;;;;;;;25.50;82.80;;;;;;2096726;28;19963;-75
2023/07/12 05:01:29;;;;;;;;;;;25.50;82.70;;;;;;2095911;28;19963;-74
2023/07/12 05:02:29;;;;;;;;;;;25.50;82.70;;;;;;2094110;28;19924;-74
2023/07/12 05:03:30;;;;;;;;;;;25.50;82.70;;;;;;2101889;28;19916;-74
2023/07/12 05:04:31;;;;;;;;;;;25.60;82.70;;;;;;2093417;28;19969;-74
2023/07/12 05:05:31;;;;;;;;;;;25.60;82.70;;;;;;2093685;28;19981;-74
2023/07/12 05:06:32;;;;;;;;;;;25.60;82.50;;;;;;2099502;28;19968;-74
2023/07/12 05:07:32;;;;;;;;;;;25.60;82.40;;;;;;2094208;28;20451;-76
2023/07/12 05:08:33;;;;;;;;;;;25.60;82.10;;;;;;2089851;28;20160;-75
2023/07/12 05:09:33;;;;;;;;;;;25.60;82.10;;;;;;2091793;28;20391;-75
2023/07/12 05:10:34;;;;;;;;;;;25.60;82.10;;;;;;2088147;28;19917;-74
2023/07/12 05:11:34;;;;;;;;;;;25.60;82.10;;;;;;2099764;28;19922;-75
2023/07/12 05:12:35;;;;;;;;;;;25.60;81.90;;;;;;2091425;28;19917;-74
2023/07/12 05:13:36;;;;;;;;;;;25.60;82.30;;;;;;2084721;28;20576;-74
2023/07/12 05:14:36;;;;;;;;;;;25.60;82.10;;;;;;2098576;28;20279;-74
2023/07/12 05:15:37;;;;;;;;;;;25.60;81.80;;;;;;2092749;28;19919;-74
2023/07/12 05:16:37;;;;;;;;;;;25.60;81.90;;;;;;2094610;28;19913;-75
2023/07/12 05:17:38;;;;;;;;;;;25.60;82.20;;;;;;2095293;28;19916;-74
2023/07/12 05:18:39;;;;;;;;;;;25.60;82.10;;;;;;2094321;28;19955;-73
2023/07/12 05:19:40;;;;;;;;;;;25.60;81.90;;;;;;2096212;28;20264;-74
2023/07/12 05:20:40;;;;;;;;;;;25.60;82.30;;;;;;2096132;28;19917;-76
2023/07/12 05:21:41;;;;;;;;;;;25.60;82.60;;;;;;2092544;28;20288;-76
2023/07/12 05:22:41;;;;;;;;;;;25.60;82.50;;;;;;2097277;28;19992;-73
2023/07/12 05:23:42;;;;;;;;;;;25.60;82.50;;;;;;2097065;28;19990;-71
2023/07/12 05:24:42;;;;;;;;;;;25.60;82.50;;;;;;2089542;28;19916;-74
2023/07/12 05:25:50;;;;;;;;;;;25.60;82.40;;;;;;2095071;28;19923;-75
2023/07/12 05:26:50;;;;;;;;;;;25.60;82.80;;;;;;2093447;28;19912;-80
2023/07/12 05:27:51;;;;;;;;;;;25.60;83.00;;;;;;2094494;28;19912;-74
2023/07/12 05:28:52;;;;;;;;;;;25.60;83.60;;;;;;2093695;28;19921;-74
2023/07/12 05:29:52;;;;;;;;;;;25.60;83.10;;;;;;2091728;28;19986;-74
2023/07/12 05:30:53;;;;;;;;;;;25.60;82.60;;;;;;2095055;28;20160;-75
2023/07/12 05:31:54;;;;;;;;;;;25.60;82.80;;;;;;2092380;28;19932;-74
2023/07/12 05:32:55;;;;;;;;;;;25.60;82.40;;;;;;2092646;28;20005;-75
2023/07/12 05:33:55;;;;;;;;;;;25.60;84.60;;;;;;2093049;28;19916;-75
2023/07/12 05:34:56;;;;;;;;;;;25.60;85.50;;;;;;2096351;28;19994;-75
2023/07/12 05:35:56;;;;;;;;;;;25.70;86.10;;;;;;2093343;28;19927;-73
2023/07/12 05:36:56;;;;;;;;;;;25.70;85.70;;;;;;2091767;28;20741;-77
2023/07/12 05:37:57;;;;;;;;;;;25.70;85.10;;;;;;2094003;28;19916;-77
2023/07/12 05:38:58;;;;;;;;;;;25.70;84.30;;;;;;2093083;28;20020;-77
2023/07/12 05:39:58;;;;;;;;;;;25.70;84.60;;;;;;2094922;28;20007;-79
2023/07/12 05:40:59;;;;;;;;;;;25.70;84.60;;;;;;2092990;28;20039;-80
2023/07/12 05:41:59;;;;;;;;;;;25.70;84.70;;;;;;2093548;28;19955;-80
2023/07/12 05:43:00;;;;;;;;;;;25.70;84.20;;;;;;2092992;28;20400;-80
2023/07/12 05:44:00;;;;;;;;;;;25.70;84.60;;;;;;2095939;28;19931;-79
2023/07/12 05:45:01;;;;;;;;;;;25.80;84.90;;;;;;2092345;28;19969;-81
2023/07/12 05:46:03;;;;;;;;;;;25.80;84.60;;;;;;2093810;28;19967;-80
2023/07/12 05:47:03;;;;;;;;;;;25.80;83.40;;;;;;2093022;28;20116;-80
2023/07/12 05:48:04;;;;;;;;;;;25.80;82.70;;;;;;2093081;28;20276;-75
2023/07/12 05:49:04;;;;;;;;;;;25.90;82.10;;;;;;2100879;28;19923;-80
2023/07/12 05:50:06;;;;;;;;;;;25.90;81.90;;;;;;2095696;28;19927;-79
2023/07/12 05:51:08;;;;;;;;;;;25.90;82.10;;;;;;2098974;28;19976;-76
2023/07/12 05:52:08;;;;;;;;;;;26.00;82.10;;;;;;2099894;28;19916;-75
2023/07/12 05:53:09;;;;;;;;;;;26.00;82.20;;;;;;2102177;28;19923;-83
2023/07/12 05:54:09;;;;;;;;;;;26.00;82.10;;;;;;2099549;28;19977;-79
2023/07/12 05:55:11;;;;;;;;;;;26.00;82.10;;;;;;2097138;28;19913;-78
2023/07/12 05:56:11;;;;;;;;;;;26.10;82.10;;;;;;2096129;28;20418;-77
2023/07/12 05:57:12;;;;;;;;;;;26.10;81.70;;;;;;2098774;28;19913;-78